Time;durP1;ratioP1;P1;durP2;ratioP2;P2;SDS_P1;SDS_P2;PMS_P1;PMS_P2;Temp;Humidity;BMP_temperature;BMP_pressure;BME280_temperature;BME280_humidity;BME280_pressure;Samples;Min_cycle;Max_cycle;Signal;HPM_P1;HPM_P2
2022/09/30 00:01:16;;;;;;;20.33;12.90;;;;;;;16.35;75.57;95138.56;4967526;28;20035;-84
2022/09/30 00:03:42;;;;;;;16.63;11.68;;;;;;;16.29;75.46;95134.88;4966134;28;20031;-84
2022/09/30 00:06:08;;;;;;;17.40;11.00;;;;;;;16.30;75.38;95133.81;4967973;28;20019;-84
2022/09/30 00:08:33;;;;;;;17.65;12.27;;;;;;;16.29;75.40;95129.47;4949863;28;20106;-85
2022/09/30 00:11:00;;;;;;;17.10;9.13;;;;;;;16.23;74.88;95141.19;4967515;28;20027;-85
2022/09/30 00:13:26;;;;;;;15.75;9.32;;;;;;;16.23;74.11;95133.91;4950344;28;20027;-85
2022/09/30 00:15:51;;;;;;;16.50;10.32;;;;;;;16.16;74.95;95141.22;4966886;28;20031;-85
2022/09/30 00:18:17;;;;;;;16.48;10.48;;;;;;;16.05;75.32;95140.06;4983818;28;20090;-84
2022/09/30 00:20:42;;;;;;;15.38;10.20;;;;;;;16.01;75.44;95149.66;4982617;28;20038;-84
2022/09/30 00:23:07;;;;;;;13.95;9.02;;;;;;;16.00;74.93;95143.41;4952036;28;20019;-85
2022/09/30 00:25:33;;;;;;;12.40;7.95;;;;;;;15.88;75.62;95155.97;4965555;28;20023;-85
2022/09/30 00:27:58;;;;;;;19.67;10.07;;;;;;;15.96;75.59;95152.16;4951603;28;20031;-85
2022/09/30 00:30:24;;;;;;;12.80;8.93;;;;;;;15.84;75.97;95150.16;4967045;28;20038;-85
2022/09/30 00:32:49;;;;;;;15.77;7.75;;;;;;;15.81;76.11;95154.09;4968637;28;20439;-85
2022/09/30 00:35:15;;;;;;;14.05;6.97;;;;;;;15.76;76.20;95153.09;4968446;28;20030;-84
2022/09/30 00:37:40;;;;;;;15.20;8.23;;;;;;;15.77;76.30;95149.34;4966015;28;20094;-84
2022/09/30 00:40:07;;;;;;;19.25;7.90;;;;;;;15.79;75.88;95144.56;4967006;28;20094;-84
2022/09/30 00:42:33;;;;;;;13.65;8.48;;;;;;;15.81;75.90;95145.16;4966989;28;20047;-84
2022/09/30 00:45:06;;;;;;;15.98;9.20;;;;;;;15.79;76.25;95137.28;4967246;28;20089;-84
2022/09/30 00:47:47;;;;;;;15.73;9.73;;;;;;;15.85;76.18;95130.16;4965479;28;20035;-84
2022/09/30 00:50:25;;;;;;;12.38;8.70;;;;;;;15.80;76.48;95127.28;4966760;28;20646;-84
2022/09/30 00:52:56;;;;;;;13.45;8.43;;;;;;;15.85;76.23;95122.03;4968156;28;20031;-84
2022/09/30 00:55:45;;;;;;;12.15;7.95;;;;;;;15.89;76.50;95135.97;4965600;28;20085;-84
2022/09/30 00:58:12;;;;;;;12.55;8.20;;;;;;;15.80;76.57;95127.28;4982653;28;20031;-84
2022/09/30 01:00:37;;;;;;;12.48;7.63;;;;;;;15.80;76.65;95132.69;4965254;28;20432;-84
2022/09/30 01:03:03;;;;;;;13.13;8.18;;;;;;;15.77;76.90;95131.25;4967836;28;20447;-84
2022/09/30 01:05:28;;;;;;;12.82;7.78;;;;;;;15.70;77.29;95123.16;4965858;28;20438;-84
2022/09/30 01:07:55;;;;;;;14.90;8.50;;;;;;;15.61;77.74;95129.88;4965811;28;20054;-84
2022/09/30 01:10:20;;;;;;;11.20;7.55;;;;;;;15.45;78.57;95129.34;4966635;28;20050;-84
2022/09/30 01:12:46;;;;;;;14.25;8.88;;;;;;;15.49;78.58;95135.16;4966510;28;20023;-83
2022/09/30 01:15:11;;;;;;;12.68;7.85;;;;;;;15.50;77.89;95138.66;4966965;28;20426;-84
2022/09/30 01:18:01;;;;;;;13.88;7.93;;;;;;;15.41;77.77;95130.81;4981218;28;20037;-84
2022/09/30 01:20:45;;;;;;;10.45;7.75;;;;;;;15.38;78.06;95144.75;4966199;28;20031;-84
2022/09/30 01:23:17;;;;;;;12.13;7.18;;;;;;;15.30;78.30;95150.38;4967958;28;20027;-84
2022/09/30 01:26:04;;;;;;;14.40;8.18;;;;;;;15.35;78.42;95153.28;4981196;28;20143;-84
2022/09/30 01:28:37;;;;;;;11.82;8.13;;;;;;;15.36;78.40;95160.38;4967984;28;20035;-84
2022/09/30 01:31:39;;;;;;;11.23;7.35;;;;;;;15.47;78.12;95153.47;4981413;28;20150;-83
2022/09/30 01:34:49;;;;;;;10.85;6.93;;;;;;;15.40;78.42;95145.38;4970563;28;20055;-83
2022/09/30 01:38:03;;;;;;;11.35;7.13;;;;;;;15.39;78.45;95145.59;4979322;28;20039;-84
2022/09/30 01:40:37;;;;;;;10.90;7.03;;;;;;;15.42;78.12;95146.00;4891685;28;20080;-84
2022/09/30 01:43:06;;;;;;;9.70;6.75;;;;;;;15.42;78.24;95148.69;4984556;28;20023;-84
2022/09/30 01:45:34;;;;;;;10.18;7.40;;;;;;;15.44;78.21;95145.78;4971643;28;20054;-83
2022/09/30 01:48:11;;;;;;;11.15;7.63;;;;;;;15.40;77.82;95156.19;4968767;28;20045;-83
2022/09/30 01:50:53;;;;;;;9.23;6.72;;;;;;;15.44;78.17;95135.78;4969871;28;20654;-83
2022/09/30 01:53:29;;;;;;;9.05;6.57;;;;;;;15.52;77.49;95147.41;4970038;28;20033;-84
2022/09/30 01:56:03;;;;;;;9.18;5.97;;;;;;;15.53;77.58;95149.88;4968837;28;20054;-84
2022/09/30 01:58:52;;;;;;;13.32;7.80;;;;;;;15.45;77.95;95147.44;4986469;28;20320;-84
2022/09/30 02:01:46;;;;;;;9.32;6.32;;;;;;;15.45;77.38;95148.25;4983495;28;20101;-84
2022/09/30 02:04:16;;;;;;;10.02;6.70;;;;;;;15.38;77.36;95152.84;4953269;28;20122;-83
2022/09/30 02:06:44;;;;;;;9.40;6.75;;;;;;;15.40;77.24;95152.63;4969970;28;20031;-83
2022/09/30 02:09:15;;;;;;;8.30;5.88;;;;;;;15.35;77.54;95165.97;4968462;28;20023;-83
2022/09/30 02:11:41;;;;;;;8.45;6.20;;;;;;;15.31;77.44;95165.56;4969835;28;20027;-83
2022/09/30 02:14:14;;;;;;;9.02;5.90;;;;;;;15.24;77.44;95167.44;4969606;28;20027;-83
2022/09/30 02:16:44;;;;;;;;;;;;;;;15.26;77.46;95159.97;4954617;28;20038;-85
2022/09/30 02:20:02;;;;;;;9.85;5.85;;;;;;;15.22;77.14;95159.56;4969292;28;19914;-84
2022/09/30 02:22:31;;;;;;;7.72;5.60;;;;;;;15.25;76.97;95164.53;4967143;28;20077;-84
2022/09/30 02:24:59;;;;;;;7.72;5.60;;;;;;;15.28;76.61;95157.91;4969794;28;20117;-85
2022/09/30 02:27:45;;;;;;;7.18;5.50;;;;;;;15.22;76.73;95169.56;4968609;28;20511;-83
2022/09/30 02:30:11;;;;;;;8.10;6.20;;;;;;;15.24;76.88;95167.44;4968387;28;20499;-84
2022/09/30 02:32:48;;;;;;;10.00;7.10;;;;;;;15.25;76.24;95169.94;4969798;28;20413;-83
2022/09/30 02:35:22;;;;;;;7.90;5.72;;;;;;;15.23;76.39;95168.50;4968467;28;20478;-83
2022/09/30 02:37:49;;;;;;;8.10;6.05;;;;;;;15.25;76.09;95163.72;4953793;28;20030;-84
2022/09/30 02:40:21;;;;;;;7.90;6.15;;;;;;;15.24;76.36;95171.00;4968040;28;20097;-84
2022/09/30 02:42:47;;;;;;;10.25;6.68;;;;;;;15.23;75.86;95161.25;4969388;28;20034;-84
2022/09/30 02:45:15;;;;;;;9.25;6.10;;;;;;;15.24;76.15;95170.16;4968397;28;20037;-84
2022/09/30 02:47:43;;;;;;;8.75;6.45;;;;;;;15.22;76.29;95164.16;4968501;28;20224;-83
2022/09/30 02:50:15;;;;;;;11.82;6.90;;;;;;;15.11;76.60;95171.88;4969110;28;20199;-85
2022/09/30 02:53:13;;;;;;;8.50;6.38;;;;;;;15.14;76.17;95174.13;4984092;28;20023;-85
2022/09/30 02:56:08;;;;;;;9.60;6.45;;;;;;;15.22;75.98;95169.56;4985221;28;20517;-85
2022/09/30 02:58:38;;;;;;;10.30;7.10;;;;;;;15.08;76.27;95169.59;4984929;28;20037;-85
2022/09/30 03:01:05;;;;;;;11.30;7.07;;;;;;;15.11;76.29;95169.16;4967617;28;20035;-85
2022/09/30 03:03:33;;;;;;;11.73;7.65;;;;;;;15.14;75.56;95173.31;4969536;28;20023;-86
2022/09/30 03:05:58;;;;;;;10.63;7.05;;;;;;;15.22;75.74;95185.78;4983672;28;20035;-86
2022/09/30 03:08:24;;;;;;;11.15;6.68;;;;;;;15.14;76.20;95190.34;4952657;28;20034;-86
2022/09/30 03:10:50;;;;;;;10.40;7.18;;;;;;;15.15;76.25;95180.38;4968224;28;20046;-86
2022/09/30 03:13:34;;;;;;;11.27;7.93;;;;;;;15.20;76.28;95189.50;4969000;28;20516;-86
2022/09/30 03:16:18;;;;;;;13.10;6.93;;;;;;;15.24;76.22;95179.09;4969226;28;20053;-86
2022/09/30 03:19:02;;;;;;;10.82;6.55;;;;;;;15.21;76.33;95179.53;4967229;28;20027;-85
2022/09/30 03:21:46;;;;;;;12.68;7.18;;;;;;;15.23;76.01;95182.00;4969910;28;20038;-86
2022/09/30 03:24:39;;;;;;;15.93;7.55;;;;;;;15.09;76.44;95179.34;4969177;28;20089;-86
2022/09/30 03:27:26;;;;;;;13.52;8.02;;;;;;;15.11;76.33;95185.38;4967305;28;20034;-86
2022/09/30 03:30:08;;;;;;;12.88;7.28;;;;;;;15.12;76.39;95178.09;4968637;28;20054;-85
2022/09/30 03:32:34;;;;;;;13.13;7.78;;;;;;;15.12;76.26;95178.91;4967395;28;20514;-84
2022/09/30 03:35:02;;;;;;;10.18;6.50;;;;;;;15.05;76.46;95178.13;4969639;28;20153;-85
2022/09/30 03:38:02;;;;;;;11.07;6.47;;;;;;;15.03;76.22;95177.50;4984603;28;20046;-86
2022/09/30 03:40:30;;;;;;;13.25;6.78;;;;;;;14.99;76.51;95179.81;4980435;28;20023;-85
2022/09/30 03:42:59;;;;;;;16.27;7.03;;;;;;;14.91;76.70;95174.63;4985289;28;20046;-86
2022/09/30 03:45:38;;;;;;;17.85;7.45;;;;;;;14.95;76.32;95187.50;4967189;28;20339;-86
2022/09/30 03:48:06;;;;;;;13.07;5.88;;;;;;;14.87;76.80;95198.50;4968051;28;20023;-86
2022/09/30 03:50:32;;;;;;;10.48;6.20;;;;;;;14.66;77.87;95204.94;4968028;28;20031;-84
2022/09/30 03:52:58;;;;;;;12.00;6.13;;;;;;;14.69;78.13;95205.34;4951753;28;20034;-85
2022/09/30 03:55:24;;;;;;;10.52;6.45;;;;;;;14.76;77.92;95204.50;4973256;28;20054;-83
2022/09/30 03:57:53;;;;;;;10.75;5.82;;;;;;;14.83;77.68;95205.38;4976246;28;20023;-85
2022/09/30 04:00:20;;;;;;;14.65;6.40;;;;;;;14.91;77.63;95210.53;4968264;28;20031;-85
2022/09/30 04:02:45;;;;;;;14.23;6.75;;;;;;;14.97;77.07;95219.69;4966501;28;20042;-86
2022/09/30 04:05:11;;;;;;;13.70;6.97;;;;;;;14.93;77.16;95221.13;4967507;28;20027;-85
2022/09/30 04:07:37;;;;;;;17.23;7.97;;;;;;;14.98;76.92;95207.84;4951453;28;20086;-85
2022/09/30 04:10:03;;;;;;;14.93;6.80;;;;;;;15.04;76.80;95208.88;4970873;28;20485;-85
2022/09/30 04:12:28;;;;;;;18.25;6.80;;;;;;;15.01;76.85;95206.59;4969395;28;20027;-85
2022/09/30 04:14:53;;;;;;;17.60;6.57;;;;;;;15.07;76.66;95216.56;4968056;28;20030;-85
2022/09/30 04:17:19;;;;;;;15.48;7.68;;;;;;;15.02;77.08;95206.38;4984066;28;20078;-84
2022/09/30 04:19:44;;;;;;;15.80;7.13;;;;;;;15.02;77.14;95206.38;4967407;28;20387;-85
2022/09/30 04:22:10;;;;;;;18.73;7.82;;;;;;;15.00;77.39;95208.47;4967764;28;20026;-85
2022/09/30 04:24:35;;;;;;;17.30;6.88;;;;;;;15.03;77.22;95204.50;4967478;28;20486;-84
2022/09/30 04:27:01;;;;;;;27.90;7.82;;;;;;;15.01;77.42;95210.09;4967526;28;20097;-84
2022/09/30 04:29:27;;;;;;;15.90;7.43;;;;;;;14.96;77.23;95209.91;4982860;28;20058;-86
2022/09/30 04:31:53;;;;;;;15.90;7.55;;;;;;;14.97;77.57;95213.44;4982953;28;20043;-85
2022/09/30 04:34:18;;;;;;;13.68;7.45;;;;;;;14.97;77.41;95216.13;4968040;28;20118;-85
2022/09/30 04:36:43;;;;;;;14.65;6.90;;;;;;;14.95;77.59;95224.44;4970597;28;20049;-84
2022/09/30 04:39:09;;;;;;;18.05;6.80;;;;;;;14.99;77.54;95217.63;4975074;28;20023;-85
2022/09/30 04:41:35;;;;;;;15.48;6.57;;;;;;;14.94;77.24;95229.00;4966583;28;20046;-85
2022/09/30 04:44:05;;;;;;;15.32;6.85;;;;;;;14.87;77.93;95238.16;4983650;28;20026;-85
2022/09/30 04:46:31;;;;;;;13.25;5.95;;;;;;;14.76;78.10;95234.19;4982045;28;20046;-86
2022/09/30 04:48:56;;;;;;;12.23;6.65;;;;;;;14.80;77.97;95233.59;4984112;28;20035;-85
2022/09/30 04:51:22;;;;;;;13.68;6.22;;;;;;;14.80;77.65;95240.88;4983496;28;20027;-85
2022/09/30 04:53:47;;;;;;;14.88;6.10;;;;;;;14.73;77.64;95250.81;4966464;28;20033;-85
2022/09/30 04:56:13;;;;;;;11.63;6.13;;;;;;;14.62;78.57;95263.88;4968389;28;20030;-85
2022/09/30 04:58:38;;;;;;;12.45;6.15;;;;;;;14.68;78.17;95268.47;4964901;28;20450;-84
2022/09/30 05:01:05;;;;;;;15.65;6.60;;;;;;;14.65;78.64;95263.50;4966822;28;20101;-84
2022/09/30 05:03:31;;;;;;;9.52;5.65;;;;;;;14.69;78.04;95248.53;4981635;28;20027;-85
2022/09/30 05:05:57;;;;;;;14.52;6.45;;;;;;;14.68;78.41;95252.28;4966063;28;20027;-84
2022/09/30 05:08:22;;;;;;;9.65;5.95;;;;;;;14.77;78.35;95243.94;4949636;28;20037;-85
2022/09/30 05:10:56;;;;;;;12.85;6.43;;;;;;;14.78;78.49;95251.84;4981839;28;20077;-85
2022/09/30 05:13:22;;;;;;;15.73;6.47;;;;;;;14.81;78.64;95256.03;4950775;28;20138;-86
2022/09/30 05:15:48;;;;;;;10.20;6.32;;;;;;;14.82;78.45;95263.09;4966465;28;20105;-85
2022/09/30 05:18:14;;;;;;;12.75;7.07;;;;;;;14.88;77.77;95270.34;4983068;28;20506;-84
2022/09/30 05:20:39;;;;;;;11.63;6.78;;;;;;;14.91;77.71;95267.25;4981216;28;20030;-85
2022/09/30 05:23:05;;;;;;;13.30;7.13;;;;;;;14.93;77.34;95264.31;4967826;28;20042;-84
2022/09/30 05:25:30;;;;;;;21.90;7.55;;;;;;;14.90;77.19;95265.59;4981683;28;20038;-84
2022/09/30 05:27:56;;;;;;;16.73;6.93;;;;;;;14.86;78.13;95275.16;4949843;28;20042;-84
2022/09/30 05:30:21;;;;;;;16.65;7.60;;;;;;;14.83;78.46;95262.06;4982041;28;20051;-85
2022/09/30 05:32:46;;;;;;;8.52;6.05;;;;;;;14.85;78.39;95265.38;4965553;28;20317;-84
2022/09/30 05:35:13;;;;;;;12.10;7.05;;;;;;;14.76;78.73;95266.59;4966437;28;20023;-85
2022/09/30 05:37:38;;;;;;;15.60;7.53;;;;;;;14.70;78.81;95285.28;4966284;28;20034;-85
2022/09/30 05:40:05;;;;;;;13.23;7.88;;;;;;;14.77;78.64;95289.84;4950071;28;20059;-85
2022/09/30 05:42:35;;;;;;;15.80;7.55;;;;;;;14.73;79.07;95286.75;4966504;28;20037;-85
2022/09/30 05:45:01;;;;;;;15.13;7.97;;;;;;;14.59;80.44;95305.63;4981494;28;20034;-85
2022/09/30 05:47:26;;;;;;;17.10;7.95;;;;;;;14.60;80.42;95298.38;4949334;28;20083;-85
2022/09/30 05:49:52;;;;;;;13.82;7.82;;;;;;;14.58;80.58;95297.72;4965677;28;20030;-85
2022/09/30 05:52:18;;;;;;;19.08;8.60;;;;;;;14.63;80.07;95302.50;4966092;28;20026;-85
2022/09/30 05:54:44;;;;;;;16.83;9.27;;;;;;;14.65;80.73;95312.06;4981149;28;20533;-84
2022/09/30 05:57:09;;;;;;;18.77;9.82;;;;;;;14.65;80.81;95295.88;4982641;28;20026;-85
2022/09/30 05:59:36;;;;;;;19.98;10.43;;;;;;;14.71;80.63;95303.16;4964933;28;20117;-84
2022/09/30 06:02:02;;;;;;;23.55;10.95;;;;;;;14.84;80.58;95309.63;4966381;28;20023;-85
2022/09/30 06:04:27;;;;;;;22.08;11.88;;;;;;;14.79;80.35;95306.66;4967085;28;20409;-84
2022/09/30 06:06:53;;;;;;;22.70;12.43;;;;;;;14.65;81.09;95306.69;4966109;28;20027;-84
2022/09/30 06:09:18;;;;;;;21.63;11.60;;;;;;;14.68;81.95;95300.88;4965629;28;20502;-84
2022/09/30 06:11:44;;;;;;;22.33;12.02;;;;;;;14.78;81.47;95300.44;4965442;28;20038;-84
2022/09/30 06:14:09;;;;;;;24.60;12.38;;;;;;;14.88;81.22;95315.44;4949856;28;20401;-84
2022/09/30 06:16:35;;;;;;;21.77;12.55;;;;;;;14.89;79.71;95317.94;4981364;28;20105;-84
2022/09/30 06:19:00;;;;;;;22.98;11.98;;;;;;;14.81;80.22;95320.84;4968617;28;20027;-84
2022/09/30 06:21:27;;;;;;;25.00;12.98;;;;;;;14.89;80.13;95317.94;4968086;28;20046;-85
2022/09/30 06:23:53;;;;;;;21.70;13.15;;;;;;;14.98;80.11;95325.84;4969822;28;20026;-85
2022/09/30 06:26:18;;;;;;;24.55;14.07;;;;;;;14.92;80.19;95327.47;4968543;28;20057;-85
2022/09/30 06:28:44;;;;;;;26.70;14.50;;;;;;;14.83;80.28;95324.16;4970822;28;20031;-85
2022/09/30 06:31:10;;;;;;;27.95;15.40;;;;;;;14.86;80.70;95329.16;4968685;28;20055;-85
2022/09/30 06:33:35;;;;;;;26.92;15.52;;;;;;;14.95;80.61;95340.56;4969811;28;20490;-84
2022/09/30 06:36:03;;;;;;;28.15;16.10;;;;;;;14.93;80.77;95345.34;4969184;28;20046;-86
2022/09/30 06:38:33;;;;;;;26.98;15.82;;;;;;;14.93;80.30;95343.47;4967883;28;20042;-85
2022/09/30 06:40:59;;;;;;;30.02;16.10;;;;;;;14.93;80.78;95356.13;4969380;28;20039;-84
2022/09/30 06:43:24;;;;;;;27.50;15.00;;;;;;;14.92;80.45;95349.94;4951475;28;20023;-84
2022/09/30 06:45:50;;;;;;;25.17;14.30;;;;;;;14.93;80.46;95356.97;4970738;28;20041;-85
2022/09/30 06:48:15;;;;;;;25.70;14.68;;;;;;;14.95;80.04;95359.47;4968422;28;20038;-85
2022/09/30 06:50:41;;;;;;;25.45;15.25;;;;;;;14.94;80.14;95372.13;4952395;28;20035;-85
2022/09/30 06:53:07;;;;;;;29.35;16.13;;;;;;;14.88;81.05;95374.84;4984835;28;20041;-85
2022/09/30 06:55:32;;;;;;;27.55;15.07;;;;;;;15.00;81.28;95380.44;4968038;28;20051;-86
2022/09/30 06:57:58;;;;;;;28.23;14.23;;;;;;;15.06;80.74;95385.03;4969253;28;20034;-85
2022/09/30 07:00:24;;;;;;;33.47;13.15;;;;;;;15.12;79.73;95373.38;4983717;28;20110;-86
2022/09/30 07:02:50;;;;;;;28.83;12.90;;;;;;;15.07;80.51;95384.00;4969219;28;20173;-86
2022/09/30 07:05:16;;;;;;;29.48;13.07;;;;;;;15.27;79.25;95384.00;4983988;28;20449;-86
2022/09/30 07:07:42;;;;;;;31.42;12.48;;;;;;;15.29;79.22;95383.78;4968660;28;20027;-85
2022/09/30 07:10:08;;;;;;;33.40;13.30;;;;;;;15.35;79.46;95385.66;4969631;28;20429;-85
2022/09/30 07:12:34;;;;;;;31.77;12.48;;;;;;;15.43;79.33;95390.84;4984179;28;20031;-86
2022/09/30 07:14:59;;;;;;;28.05;12.27;;;;;;;15.62;78.76;95395.63;4970198;28;20067;-85
2022/09/30 07:17:26;;;;;;;26.85;13.77;;;;;;;15.66;77.94;95394.16;4983425;28;20082;-84
2022/09/30 07:19:51;;;;;;;33.95;14.55;;;;;;;15.81;77.50;95396.63;4968823;28;20027;-85
2022/09/30 07:22:28;;;;;;;26.73;13.68;;;;;;;15.88;78.12;95399.34;4968475;28;20034;-85
2022/09/30 07:24:58;;;;;;;30.80;14.68;;;;;;;15.97;77.32;95394.50;4968751;28;20023;-86
2022/09/30 07:27:24;;;;;;;26.88;13.07;;;;;;;15.93;77.45;95391.41;4967511;28;20034;-86
2022/09/30 07:29:50;;;;;;;26.92;13.73;;;;;;;15.83;77.29;95399.94;4967207;28;20181;-86
2022/09/30 07:32:18;;;;;;;30.73;14.27;;;;;;;15.82;77.65;95393.72;4969405;28;20505;-86
2022/09/30 07:34:44;;;;;;;26.48;14.60;;;;;;;15.89;76.85;95401.81;4967330;28;20030;-87
2022/09/30 07:37:11;;;;;;;27.25;14.38;;;;;;;16.01;77.06;95396.63;4968974;28;20025;-86
2022/09/30 07:39:37;;;;;;;24.60;13.85;;;;;;;16.13;77.44;95401.38;4966827;28;20027;-85
2022/09/30 07:42:03;;;;;;;26.85;15.88;;;;;;;16.24;76.11;95402.56;4968245;28;20139;-85
2022/09/30 07:44:28;;;;;;;27.02;15.75;;;;;;;16.33;76.35;95405.88;4967328;28;20026;-85
2022/09/30 07:46:53;;;;;;;29.20;16.88;;;;;;;16.41;76.36;95403.75;4968076;28;20813;-85
2022/09/30 07:49:24;;;;;;;29.08;17.55;;;;;;;16.53;76.86;95405.78;4968107;28;20023;-86
2022/09/30 07:51:49;;;;;;;30.98;15.93;;;;;;;16.61;76.18;95421.78;4982890;28;20563;-86
2022/09/30 07:54:16;;;;;;;32.50;17.83;;;;;;;16.61;76.53;95423.66;4968074;28;20023;-85
2022/09/30 07:56:43;;;;;;;35.92;18.67;;;;;;;16.83;74.45;95416.03;4966334;28;20042;-86
2022/09/30 07:59:09;;;;;;;37.47;18.60;;;;;;;16.87;73.44;95422.72;4968298;28;20444;-84
2022/09/30 08:01:34;;;;;;;30.90;17.48;;;;;;;17.11;73.19;95412.16;4966912;28;20030;-85
2022/09/30 08:04:01;;;;;;;29.75;17.17;;;;;;;17.30;72.80;95420.38;4951715;28;20409;-87
2022/09/30 08:06:27;;;;;;;30.27;18.23;;;;;;;17.21;74.13;95427.09;4967102;28;20034;-86
2022/09/30 08:08:53;;;;;;;34.15;17.77;;;;;;;17.32;74.63;95422.84;4967385;28;20179;-85
2022/09/30 08:11:19;;;;;;;34.65;17.77;;;;;;;17.38;74.37;95430.94;4967723;28;20030;-86
2022/09/30 08:13:55;;;;;;;31.80;16.52;;;;;;;17.63;73.32;95416.56;4966172;28;20453;-86
2022/09/30 08:16:20;;;;;;;41.45;18.02;;;;;;;17.80;73.14;95424.13;4952132;28;20105;-85
2022/09/30 08:18:46;;;;;;;40.92;16.20;;;;;;;17.94;73.30;95429.44;4966451;28;20023;-85
2022/09/30 08:21:11;;;;;;;53.80;16.48;;;;;;;18.12;71.65;95425.94;4968941;28;20030;-85
2022/09/30 08:23:37;;;;;;;47.55;15.00;;;;;;;18.27;70.64;95422.84;4966504;28;20046;-86
2022/09/30 08:26:07;;;;;;;30.25;13.23;;;;;;;18.36;69.88;95434.25;4966926;28;20039;-85
2022/09/30 08:28:33;;;;;;;32.08;14.25;;;;;;;18.35;70.02;95444.25;4967510;28;20394;-86
2022/09/30 08:31:19;;;;;;;35.72;14.77;;;;;;;18.14;72.16;95440.94;4966387;28;20710;-86
2022/09/30 08:33:45;;;;;;;26.33;13.18;;;;;;;18.23;71.69;95443.38;4967513;28;20045;-85
2022/09/30 08:36:21;;;;;;;30.75;12.73;;;;;;;18.38;70.35;95440.25;4982474;28;20406;-86
2022/09/30 08:38:47;;;;;;;20.33;11.85;;;;;;;18.48;70.43;95439.72;4950979;28;20478;-86
2022/09/30 08:41:43;;;;;;;28.65;13.13;;;;;;;18.38;71.03;95441.09;4966148;28;20054;-87
2022/09/30 08:44:14;;;;;;;27.67;14.35;;;;;;;18.52;72.23;95440.94;4967703;28;20560;-86
2022/09/30 08:46:55;;;;;;;37.40;15.13;;;;;;;18.64;72.13;95444.56;4967105;28;20157;-86
2022/09/30 08:49:36;;;;;;;25.48;13.68;;;;;;;18.63;71.13;95445.63;4966283;28;20486;-85
2022/09/30 08:52:01;;;;;;;24.92;13.43;;;;;;;18.63;70.65;95448.34;4967862;28;20037;-87
2022/09/30 08:54:30;;;;;;;22.23;13.18;;;;;;;18.83;69.26;95447.22;4950580;28;20030;-87
2022/09/30 08:56:55;;;;;;;24.13;12.60;;;;;;;19.00;69.44;95452.03;4949563;28;20417;-86
2022/09/30 08:59:44;;;;;;;26.45;14.20;;;;;;;19.08;69.06;95448.16;4950930;28;20485;-86
2022/09/30 09:02:26;;;;;;;23.13;12.43;;;;;;;18.94;68.41;95444.81;4949477;28;20492;-86
2022/09/30 09:04:52;;;;;;;22.92;12.75;;;;;;;18.97;69.00;95449.78;4950586;28;20029;-86
2022/09/30 09:07:36;;;;;;;26.85;14.20;;;;;;;19.07;69.08;95446.53;4966373;28;20026;-87
2022/09/30 09:10:40;;;;;;;24.00;13.38;;;;;;;19.27;69.32;95455.25;4967029;28;20079;-87
2022/09/30 09:13:43;;;;;;;21.88;12.07;;;;;;;19.52;69.12;95458.84;4966272;28;20133;-86
2022/09/30 09:16:29;;;;;;;23.17;11.77;;;;;;;19.18;67.70;95462.06;4967307;28;20042;-85
2022/09/30 09:18:58;;;;;;;22.98;13.57;;;;;;;19.47;67.78;95461.44;4966580;28;20022;-85
2022/09/30 09:21:33;;;;;;;22.45;13.23;;;;;;;19.75;65.58;95463.50;4983024;28;20026;-86
2022/09/30 09:24:00;;;;;;;20.83;12.63;;;;;;;19.82;66.34;95459.84;4966677;28;20030;-85
2022/09/30 09:26:26;;;;;;;20.45;12.00;;;;;;;19.99;67.03;95458.06;4950574;28;20689;-85
2022/09/30 09:29:03;;;;;;;19.83;11.80;;;;;;;20.22;65.85;95455.59;4965899;28;20034;-85
2022/09/30 09:31:28;;;;;;;20.63;11.00;;;;;;;20.04;64.78;95460.09;4981650;28;20544;-85
2022/09/30 09:34:00;;;;;;;21.05;10.77;;;;;;;20.19;64.79;95451.47;4982647;28;20026;-85
2022/09/30 09:36:31;;;;;;;20.30;11.15;;;;;;;20.52;62.16;95449.19;4981579;28;20090;-85
2022/09/30 09:39:24;;;;;;;17.35;9.13;;;;;;;20.60;64.03;95451.53;4983104;28;20035;-86
2022/09/30 09:42:01;;;;;;;18.45;10.02;;;;;;;20.73;64.11;95453.16;4967317;28;20031;-85
2022/09/30 09:44:40;;;;;;;13.80;8.82;;;;;;;20.90;61.75;95457.00;4965383;28;20043;-88
2022/09/30 09:47:15;;;;;;;18.90;9.48;;;;;;;21.02;62.26;95457.00;4966552;28;20568;-86
2022/09/30 09:49:45;;;;;;;17.42;8.70;;;;;;;21.08;61.24;95445.13;4965154;28;20039;-85
2022/09/30 09:52:11;;;;;;;13.98;8.27;;;;;;;21.17;60.99;95451.00;4966237;28;20037;-86
2022/09/30 09:54:40;;;;;;;14.20;8.45;;;;;;;21.26;59.44;95444.09;4967651;28;20031;-87
2022/09/30 09:57:31;;;;;;;12.88;7.95;;;;;;;21.63;57.12;95441.97;4969804;28;20053;-86
2022/09/30 10:03:07;;;;;;;15.85;6.75;;;;;;;21.51;56.78;95442.88;4982901;28;20046;-84
2022/09/30 10:05:38;;;;;;;15.95;8.15;;;;;;;21.64;57.75;95440.91;4985700;28;20023;-84
2022/09/30 10:08:21;;;;;;;13.75;6.72;;;;;;;21.74;55.06;95447.38;4969214;28;20069;-83
2022/09/30 10:11:09;;;;;;;13.40;6.00;;;;;;;21.86;55.45;95439.13;4968773;28;20158;-84
2022/09/30 10:13:37;;;;;;;13.85;6.20;;;;;;;21.65;53.88;95442.56;4969868;28;20027;-84
2022/09/30 10:16:03;;;;;;;11.40;5.30;;;;;;;21.72;54.30;95437.75;4968582;28;20023;-85
2022/09/30 10:18:35;;;;;;;9.50;4.97;;;;;;;22.00;54.39;95437.94;4969496;28;20026;-84
2022/09/30 10:21:03;;;;;;;4.90;2.28;;;;;;;22.08;48.46;95430.19;4968871;28;20027;-84
2022/09/30 10:23:31;;;;;;;7.57;2.00;;;;;;;22.20;47.48;95426.50;4984758;28;20109;-83
2022/09/30 10:26:24;;;;;;;5.65;2.30;;;;;;;22.18;47.26;95424.00;4985628;28;20046;-84
2022/09/30 10:28:56;;;;;;;6.45;1.80;;;;;;;22.35;45.49;95434.09;4981457;28;20504;-84
2022/09/30 10:31:28;;;;;;;6.05;2.08;;;;;;;22.37;45.49;95422.91;4968868;28;20093;-83
2022/09/30 10:33:58;;;;;;;5.97;2.08;;;;;;;22.33;45.78;95415.22;4984505;28;20035;-84
2022/09/30 10:36:32;;;;;;;5.03;2.13;;;;;;;22.44;46.59;95426.28;4984378;28;20023;-83
2022/09/30 10:39:06;;;;;;;8.07;2.58;;;;;;;22.65;46.14;95416.44;4969375;28;20170;-83
2022/09/30 10:41:33;;;;;;;5.97;2.33;;;;;;;22.68;44.53;95413.22;4967938;28;20558;-84
2022/09/30 10:44:00;;;;;;;6.55;2.13;;;;;;;22.68;45.04;95412.41;4953157;28;20117;-84
2022/09/30 10:46:34;;;;;;;6.15;2.22;;;;;;;22.94;44.50;95423.63;4951667;28;20022;-84
2022/09/30 10:48:59;;;;;;;4.97;1.92;;;;;;;22.77;43.75;95419.06;4968786;28;20464;-84
2022/09/30 10:51:27;;;;;;;5.25;1.95;;;;;;;22.91;42.53;95418.69;4968290;28;20031;-84
2022/09/30 10:53:53;;;;;;;6.18;2.25;;;;;;;22.70;43.65;95407.47;4952243;28;20027;-84
2022/09/30 10:56:34;;;;;;;6.90;2.35;;;;;;;22.65;45.33;95401.97;4969137;28;20034;-84
2022/09/30 10:58:59;;;;;;;8.57;2.25;;;;;;;22.84;43.05;95418.88;4983680;28;20114;-85
2022/09/30 11:01:31;;;;;;;8.73;2.00;;;;;;;22.79;43.20;95414.19;4952429;28;20034;-85
2022/09/30 11:04:21;;;;;;;5.15;2.00;;;;;;;22.86;42.76;95433.09;4967922;28;20110;-86
2022/09/30 11:06:46;;;;;;;3.15;1.42;;;;;;;23.09;41.35;95421.06;4968044;28;20146;-84
2022/09/30 11:09:18;;;;;;;5.10;2.03;;;;;;;22.88;42.77;95414.53;4968991;28;20027;-84
2022/09/30 11:11:53;;;;;;;6.97;1.67;;;;;;;23.00;41.38;95428.06;4983114;28;20406;-85
2022/09/30 11:14:34;;;;;;;4.60;1.60;;;;;;;23.21;41.16;95412.69;4984788;28;20069;-85
2022/09/30 11:17:09;;;;;;;5.72;1.73;;;;;;;23.23;41.87;95417.91;4983899;28;20166;-85
2022/09/30 11:19:51;;;;;;;3.30;1.75;;;;;;;23.31;41.38;95422.09;4983553;28;20097;-87
2022/09/30 11:22:22;;;;;;;3.70;1.55;;;;;;;23.41;40.68;95421.38;4968428;28;20035;-84
2022/09/30 11:24:49;;;;;;;6.78;1.90;;;;;;;23.57;41.70;95420.44;4983268;28;20019;-85
2022/09/30 11:27:36;;;;;;;5.75;1.67;;;;;;;23.41;40.89;95418.63;4968622;28;20136;-84
2022/09/30 11:30:08;;;;;;;4.05;1.60;;;;;;;23.60;40.61;95423.75;4980911;28;20556;-84
2022/09/30 11:32:59;;;;;;;2.45;1.25;;;;;;;23.67;39.50;95421.59;4968960;28;20498;-85
2022/09/30 11:35:56;;;;;;;4.30;1.67;;;;;;;23.70;39.73;95418.34;4984442;28;20117;-84
2022/09/30 11:38:31;;;;;;;3.03;1.50;;;;;;;23.98;38.46;95431.97;4970677;28;20042;-84
2022/09/30 11:41:06;;;;;;;8.25;1.42;;;;;;;24.18;38.28;95418.44;4967833;28;20446;-84
2022/09/30 11:43:38;;;;;;;3.47;1.30;;;;;;;24.36;40.08;95423.75;4967158;28;20031;-84
2022/09/30 11:46:13;;;;;;;2.47;1.33;;;;;;;24.11;38.24;95433.44;4983462;28;20062;-83